Esadore Lake, Wisconsin
Current Conditions -  °F | °C
As of 4:55 AM on Monday 20 Oct 2014 (Local Time) from KMDZ Reporting Station
Clear Clear  
Wind Chill: 37°   Ceiling: Unl
Heat Index: 41°   Visibility: 10mi
Dew Point: 39°   Wind: 6mph
Humidity: 94%   Direction: 310°NW
Pressure: 29.84"   Gusts: NA
Location:  45.2044°N, 90.4212°W
Report Text: KMDZ 200955Z AUTO 31005KT 10SM CLR 05/04 A2984 RMK AO2 T00480039
Loading
Personal Weather Stations






























Interactive Weather Map
Tropical Storm Tracking
New forecast layout! Learn more

10-Day Weather Forecast

Advertisements
Track Severe Weather on mobile